Time;durP1;ratioP1;P1;durP2;ratioP2;P2;SDS_P1;SDS_P2;PMS_P1;PMS_P2;Temp;Humidity;BMP_temperature;BMP_pressure;BME280_temperature;BME280_humidity;BME280_pressure;Samples;Min_cycle;Max_cycle;Signal;HPM_P1;HPM_P2
2023/10/08 00:01:17;;;;;;;7.07;3.65;;;;;;;;;;5045898;28;20085;-65
2023/10/08 00:03:49;;;;;;;7.53;3.53;;;;;;;;;;5037960;28;20854;-65
2023/10/08 00:06:23;;;;;;;6.80;3.60;;;;;;;;;;5071178;28;20051;-65
2023/10/08 00:08:49;;;;;;;6.80;3.28;;;;;;;;;;5089121;28;20102;-65
2023/10/08 00:11:15;;;;;;;6.38;3.33;;;;;;;;;;5085023;28;20103;-65
2023/10/08 00:13:41;;;;;;;6.63;3.65;;;;;;;;;;5055300;28;20966;-65
2023/10/08 00:16:10;;;;;;;6.72;3.70;;;;;;;;;;5041212;28;20024;-65
2023/10/08 00:18:36;;;;;;;7.00;3.78;;;;;;;;;;5049293;28;20135;-65
2023/10/08 00:23:36;;;;;;;7.18;3.53;;;;;;;;;;5050984;28;20903;-65
2023/10/08 00:26:04;;;;;;;9.07;3.30;;;;;;;;;;5037360;28;20044;-65
2023/10/08 00:28:31;;;;;;;8.90;3.38;;;;;;;;;;5044802;28;20906;-65
2023/10/08 00:30:57;;;;;;;7.32;3.50;;;;;;;;;;5076060;28;20016;-65
2023/10/08 00:33:22;;;;;;;8.00;3.75;;;;;;;;;;5092952;28;20027;-65
2023/10/08 00:35:47;;;;;;;7.37;3.37;;;;;;;;;;5089338;28;20047;-65
2023/10/08 00:38:20;;;;;;;7.40;2.90;;;;;;;;;;5078929;28;20277;-65
2023/10/08 00:40:55;;;;;;;6.45;3.42;;;;;;;;;;5087897;28;20327;-65
2023/10/08 00:43:35;;;;;;;6.05;3.30;;;;;;;;;;5065714;28;20024;-65
2023/10/08 00:46:42;;;;;;;6.82;3.90;;;;;;;;;;5085942;28;20085;-65
2023/10/08 00:48:56;;;;;;;5.80;3.22;;;;;;;;;;5072713;28;20044;-66
2023/10/08 00:53:49;;;;;;;5.82;3.20;;;;;;;;;;5079526;28;20028;-67
2023/10/08 00:56:19;;;;;;;6.60;2.83;;;;;;;;;;5047754;28;20020;-65
2023/10/08 00:58:47;;;;;;;7.30;3.10;;;;;;;;;;5029503;28;20028;-65
2023/10/08 01:01:16;;;;;;;6.32;3.50;;;;;;;;;;5049978;28;20024;-65
2023/10/08 01:03:44;;;;;;;5.70;2.90;;;;;;;;;;5061027;28;20356;-65
2023/10/08 01:06:11;;;;;;;6.05;3.38;;;;;;;;;;5069694;28;20052;-65
2023/10/08 01:08:36;;;;;;;5.53;3.13;;;;;;;;;;5055944;28;20028;-65
2023/10/08 01:11:46;;;;;;;6.93;3.10;;;;;;;;;;5085828;28;20024;-65
2023/10/08 01:14:11;;;;;;;6.97;3.78;;;;;;;;;;5044619;28;20058;-65
2023/10/08 01:16:36;;;;;;;6.10;3.08;;;;;;;;;;5049646;28;20029;-65
2023/10/08 01:19:02;;;;;;;6.40;3.20;;;;;;;;;;5039406;28;20835;-65
2023/10/08 01:21:39;;;;;;;8.60;3.20;;;;;;;;;;5044194;28;20036;-65
2023/10/08 01:24:07;;;;;;;8.30;3.63;;;;;;;;;;5041430;28;20028;-65
2023/10/08 01:26:39;;;;;;;6.68;3.45;;;;;;;;;;5074488;28;20020;-65
2023/10/08 01:29:06;;;;;;;8.88;3.30;;;;;;;;;;5076657;28;20463;-65
2023/10/08 01:31:32;;;;;;;6.63;3.33;;;;;;;;;;5044189;28;20031;-66
2023/10/08 01:33:57;;;;;;;7.45;3.25;;;;;;;;;;5037493;28;20029;-66
2023/10/08 01:36:24;;;;;;;7.68;3.25;;;;;;;;;;5045240;28;20044;-66
2023/10/08 01:38:49;;;;;;;7.38;3.28;;;;;;;;;;5033016;28;20558;-65
2023/10/08 01:41:22;;;;;;;6.57;3.70;;;;;;;;;;5038329;28;20028;-66
2023/10/08 01:43:47;;;;;;;5.68;3.13;;;;;;;;;;5048078;28;20026;-66
2023/10/08 01:46:15;;;;;;;5.97;3.22;;;;;;;;;;5036903;28;20036;-66
2023/10/08 01:48:41;;;;;;;7.05;3.10;;;;;;;;;;5035339;28;20028;-66
2023/10/08 01:51:11;;;;;;;5.57;3.05;;;;;;;;;;5037743;28;20020;-65
2023/10/08 01:53:39;;;;;;;5.30;3.08;;;;;;;;;;5051864;28;20024;-66
2023/10/08 01:56:05;;;;;;;7.78;3.10;;;;;;;;;;5058437;28;20089;-66
2023/10/08 01:58:30;;;;;;;6.43;3.13;;;;;;;;;;5043847;28;20169;-66
2023/10/08 02:01:00;;;;;;;5.20;2.78;;;;;;;;;;5037724;28;20106;-66
2023/10/08 02:03:25;;;;;;;4.78;3.38;;;;;;;;;;5040196;28;20024;-66
2023/10/08 02:05:53;;;;;;;7.13;3.30;;;;;;;;;;5045614;28;20086;-66
2023/10/08 02:08:19;;;;;;;9.27;3.30;;;;;;;;;;5045722;28;20233;-66
2023/10/08 02:10:47;;;;;;;6.63;3.53;;;;;;;;;;5047386;28;20609;-66
2023/10/08 02:13:13;;;;;;;8.57;3.45;;;;;;;;;;5042316;28;20139;-66
2023/10/08 02:15:43;;;;;;;7.43;3.38;;;;;;;;;;5035624;28;20036;-66
2023/10/08 02:18:08;;;;;;;6.05;3.13;;;;;;;;;;5038938;28;20029;-66
2023/10/08 02:20:33;;;;;;;4.90;2.93;;;;;;;;;;5052853;28;20024;-66
2023/10/08 02:22:59;;;;;;;6.63;3.38;;;;;;;;;;5052630;28;20302;-64
2023/10/08 02:25:25;;;;;;;6.05;3.47;;;;;;;;;;5035253;28;20887;-65
2023/10/08 02:27:50;;;;;;;6.70;3.67;;;;;;;;;;5037610;28;20135;-65
2023/10/08 02:30:17;;;;;;;6.37;3.17;;;;;;;;;;5046238;28;20055;-64
2023/10/08 02:32:42;;;;;;;6.53;3.10;;;;;;;;;;5038625;28;20266;-65
2023/10/08 02:35:10;;;;;;;7.10;2.97;;;;;;;;;;5035615;28;20817;-65
2023/10/08 02:37:36;;;;;;;5.78;3.50;;;;;;;;;;5044631;28;21084;-65
2023/10/08 02:40:11;;;;;;;7.85;3.28;;;;;;;;;;5047935;28;20023;-65
2023/10/08 02:42:37;;;;;;;7.20;3.50;;;;;;;;;;5046881;28;20027;-65
2023/10/08 02:45:03;;;;;;;6.03;2.95;;;;;;;;;;5075177;28;20024;-65
2023/10/08 02:47:28;;;;;;;8.32;2.95;;;;;;;;;;5090543;28;20024;-65
2023/10/08 02:49:54;;;;;;;8.20;3.60;;;;;;;;;;5091015;28;20020;-65
2023/10/08 02:52:20;;;;;;;5.40;3.27;;;;;;;;;;5047590;28;20292;-65
2023/10/08 02:54:45;;;;;;;6.05;3.30;;;;;;;;;;5087031;28;20580;-65
2023/10/08 02:57:14;;;;;;;6.43;3.20;;;;;;;;;;5045188;28;20031;-65
2023/10/08 02:59:40;;;;;;;6.13;3.20;;;;;;;;;;5046467;28;20031;-65
2023/10/08 03:02:18;;;;;;;6.95;3.08;;;;;;;;;;5045832;28;20073;-65
2023/10/08 03:04:45;;;;;;;6.72;3.55;;;;;;;;;;5041888;28;20464;-65
2023/10/08 03:07:20;;;;;;;9.82;3.85;;;;;;;;;;5061975;28;20027;-65
2023/10/08 03:09:46;;;;;;;6.80;3.28;;;;;;;;;;5043605;28;20030;-65
2023/10/08 03:12:11;;;;;;;8.52;2.97;;;;;;;;;;5036643;28;20020;-65
2023/10/08 03:14:49;;;;;;;8.52;3.10;;;;;;;;;;5047292;28;20848;-65
2023/10/08 03:17:19;;;;;;;8.70;3.13;;;;;;;;;;5042965;28;20222;-65
2023/10/08 03:19:45;;;;;;;10.50;3.17;;;;;;;;;;5033648;28;20016;-66
2023/10/08 03:22:10;;;;;;;8.25;3.15;;;;;;;;;;5043462;28;20931;-64
2023/10/08 03:27:11;;;;;;;7.17;3.47;;;;;;;;;;5049694;28;20165;-65
2023/10/08 03:29:42;;;;;;;6.50;3.30;;;;;;;;;;5083671;28;20278;-64
2023/10/08 03:32:13;;;;;;;7.20;3.03;;;;;;;;;;5093680;28;20128;-64
2023/10/08 03:34:42;;;;;;;7.15;3.20;;;;;;;;;;5084921;28;20951;-64
2023/10/08 03:37:08;;;;;;;5.05;2.88;;;;;;;;;;5093811;28;20016;-64
2023/10/08 03:39:51;;;;;;;5.65;2.90;;;;;;;;;;5054580;28;20082;-64
2023/10/08 03:42:20;;;;;;;7.60;3.08;;;;;;;;;;5045130;28;20036;-64
2023/10/08 03:44:50;;;;;;;4.85;2.88;;;;;;;;;;5047748;28;20016;-64
2023/10/08 03:47:18;;;;;;;6.00;3.00;;;;;;;;;;5038567;28;20158;-64
2023/10/08 03:49:45;;;;;;;5.75;2.83;;;;;;;;;;5040545;28;20860;-64
2023/10/08 03:52:10;;;;;;;7.82;3.58;;;;;;;;;;5044048;28;20020;-64
2023/10/08 03:54:35;;;;;;;10.85;3.30;;;;;;;;;;5041165;28;20074;-64
2023/10/08 03:57:01;;;;;;;4.93;2.78;;;;;;;;;;5047606;28;20896;-65
2023/10/08 04:01:59;;;;;;;7.07;2.85;;;;;;;;;;5047121;28;20978;-65
2023/10/08 04:04:30;;;;;;;8.80;3.80;;;;;;;;;;5048483;28;20024;-65
2023/10/08 04:07:24;;;;;;;7.63;3.00;;;;;;;;;;5045397;28;20056;-64
2023/10/08 04:09:42;;;;;;;4.47;2.75;;;;;;;;;;5080524;28;20024;-65
2023/10/08 04:12:10;;;;;;;7.53;3.15;;;;;;;;;;5093355;28;20024;-65
2023/10/08 04:14:36;;;;;;;5.18;3.13;;;;;;;;;;5045759;28;20825;-64
2023/10/08 04:17:01;;;;;;;5.75;2.80;;;;;;;;;;5045634;28;20027;-65
2023/10/08 04:19:26;;;;;;;5.07;2.72;;;;;;;;;;5046028;28;20153;-65
2023/10/08 04:21:54;;;;;;;7.25;3.28;;;;;;;;;;5046578;28;20039;-65
2023/10/08 04:24:20;;;;;;;6.88;3.55;;;;;;;;;;5049378;28;20024;-65
2023/10/08 04:26:46;;;;;;;6.28;3.10;;;;;;;;;;5045799;28;21232;-65
2023/10/08 04:29:16;;;;;;;5.63;3.03;;;;;;;;;;5041824;28;20020;-65
2023/10/08 04:31:46;;;;;;;5.00;2.70;;;;;;;;;;5044414;28;20034;-65
2023/10/08 04:34:22;;;;;;;6.15;3.05;;;;;;;;;;5044009;28;20029;-65
2023/10/08 04:36:54;;;;;;;5.80;3.13;;;;;;;;;;5047514;28;20040;-65
2023/10/08 04:39:32;;;;;;;9.18;2.95;;;;;;;;;;5039235;28;20400;-65
2023/10/08 04:42:09;;;;;;;5.40;3.03;;;;;;;;;;5032557;28;20460;-65
2023/10/08 04:44:35;;;;;;;7.03;2.95;;;;;;;;;;5048047;28;20127;-65
2023/10/08 04:47:04;;;;;;;6.15;3.10;;;;;;;;;;5043490;28;20885;-65
2023/10/08 04:49:30;;;;;;;5.88;3.10;;;;;;;;;;5040373;28;20420;-65
2023/10/08 04:51:56;;;;;;;8.73;3.25;;;;;;;;;;5052237;28;20036;-65
2023/10/08 04:54:23;;;;;;;6.97;3.17;;;;;;;;;;5075546;28;20031;-65
2023/10/08 04:56:49;;;;;;;5.82;3.22;;;;;;;;;;5043797;28;20027;-65
2023/10/08 04:59:14;;;;;;;7.05;3.60;;;;;;;;;;5047100;28;20032;-64
2023/10/08 05:02:33;;;;;;;6.15;3.42;;;;;;;;;;5039517;28;20016;-65
2023/10/08 05:04:32;;;;;;;8.18;2.60;;;;;;;;;;5026900;28;20049;-65
2023/10/08 05:07:13;;;;;;;8.18;3.58;;;;;;;;;;5046241;28;20037;-64
2023/10/08 05:09:47;;;;;;;5.43;2.90;;;;;;;;;;5045389;28;20101;-64
2023/10/08 05:12:34;;;;;;;6.13;3.67;;;;;;;;;;5043301;28;20147;-65
2023/10/08 05:18:08;;;;;;;6.63;2.95;;;;;;;;;;4965073;28;20038;-65
2023/10/08 05:28:46;;;;;;;6.47;3.00;;;;;;;;;;5035887;28;20094;-65
2023/10/08 05:31:36;;;;;;;5.93;3.20;;;;;;;;;;5065335;28;20036;-65
2023/10/08 05:34:14;;;;;;;6.28;3.60;;;;;;;;;;5049549;28;20036;-65
2023/10/08 05:39:29;;;;;;;8.70;3.58;;;;;;;;;;5047039;28;20058;-65
2023/10/08 05:42:13;;;;;;;4.93;3.00;;;;;;;;;;5085676;28;20084;-65
2023/10/08 05:48:07;;;;;;;6.70;3.20;;;;;;;;;;5049349;28;20981;-64
2023/10/08 05:55:26;;;;;;;8.65;4.25;;;;;;;;;;5091948;28;20032;-64
2023/10/08 06:03:32;;;;;;;6.97;3.73;;;;;;;;;;5049081;28;20086;-65
2023/10/08 06:06:22;;;;;;;6.70;3.17;;;;;;;;;;5091248;28;20286;-65
2023/10/08 06:11:44;;;;;;;7.57;3.57;;;;;;;;;;5078994;28;20051;-66
2023/10/08 06:14:36;;;;;;;7.45;4.00;;;;;;;;;;5042247;28;21196;-66
2023/10/08 06:17:13;;;;;;;6.53;3.58;;;;;;;;;;5045717;28;20032;-65
2023/10/08 06:19:39;;;;;;;5.75;3.33;;;;;;;;;;5047714;28;20028;-66
2023/10/08 06:22:04;;;;;;;8.10;3.85;;;;;;;;;;5046914;28;20036;-65
2023/10/08 06:24:30;;;;;;;7.18;3.97;;;;;;;;;;5047368;28;20030;-65
2023/10/08 06:26:56;;;;;;;6.78;3.45;;;;;;;;;;5031280;28;20033;-66
2023/10/08 06:29:27;;;;;;;8.68;3.70;;;;;;;;;;5052536;28;20024;-65
2023/10/08 06:32:02;;;;;;;10.43;3.92;;;;;;;;;;5046817;28;20044;-65
2023/10/08 06:34:27;;;;;;;6.60;3.53;;;;;;;;;;5045517;28;20028;-65
2023/10/08 06:36:53;;;;;;;6.20;3.70;;;;;;;;;;5040239;28;20152;-65
2023/10/08 06:39:25;;;;;;;5.85;3.30;;;;;;;;;;5044037;28;20024;-65
2023/10/08 06:41:51;;;;;;;7.32;3.30;;;;;;;;;;5043833;28;20937;-66
2023/10/08 06:44:17;;;;;;;7.05;4.30;;;;;;;;;;5036682;28;20026;-65
2023/10/08 06:46:42;;;;;;;7.90;3.67;;;;;;;;;;5072139;28;20012;-66
2023/10/08 06:49:11;;;;;;;11.23;4.32;;;;;;;;;;5045169;28;20281;-66
2023/10/08 06:51:43;;;;;;;8.70;3.85;;;;;;;;;;5043439;28;20028;-66
2023/10/08 06:54:10;;;;;;;7.15;3.40;;;;;;;;;;5042871;28;20028;-66
2023/10/08 06:56:36;;;;;;;7.80;3.40;;;;;;;;;;5043729;28;20008;-66
2023/10/08 06:59:01;;;;;;;7.75;4.00;;;;;;;;;;5044827;28;20078;-66
2023/10/08 07:01:38;;;;;;;7.93;3.70;;;;;;;;;;5041234;28;20868;-66
2023/10/08 07:04:03;;;;;;;7.30;3.58;;;;;;;;;;5045622;28;20135;-66
2023/10/08 07:06:33;;;;;;;8.65;3.63;;;;;;;;;;5049560;28;20028;-66
2023/10/08 07:08:59;;;;;;;6.70;3.65;;;;;;;;;;5049182;28;20035;-66
2023/10/08 07:11:26;;;;;;;7.55;3.92;;;;;;;;;;5070924;28;20017;-65
2023/10/08 07:13:51;;;;;;;9.70;3.88;;;;;;;;;;5053820;28;20139;-66
2023/10/08 07:16:17;;;;;;;8.60;3.70;;;;;;;;;;5047280;28;20024;-65
2023/10/08 07:18:50;;;;;;;6.70;3.55;;;;;;;;;;5050484;28;20020;-66
2023/10/08 07:21:15;;;;;;;8.98;4.38;;;;;;;;;;5042887;28;20028;-66
2023/10/08 07:23:55;;;;;;;6.32;3.85;;;;;;;;;;5062736;28;20032;-65
2023/10/08 07:26:23;;;;;;;7.88;3.92;;;;;;;;;;5046919;28;20016;-65
2023/10/08 07:28:51;;;;;;;7.22;3.63;;;;;;;;;;5042382;28;20104;-66
2023/10/08 07:31:17;;;;;;;8.50;4.15;;;;;;;;;;5048276;28;20085;-65
2023/10/08 07:33:43;;;;;;;7.28;3.75;;;;;;;;;;5044878;28;20014;-66
2023/10/08 07:36:14;;;;;;;10.65;4.57;;;;;;;;;;5043737;28;20020;-66
2023/10/08 07:38:42;;;;;;;8.27;4.13;;;;;;;;;;5061262;28;20041;-66
2023/10/08 07:41:07;;;;;;;7.30;3.92;;;;;;;;;;5049180;28;20050;-65
2023/10/08 07:43:32;;;;;;;8.13;4.40;;;;;;;;;;5048334;28;20828;-66
2023/10/08 07:45:58;;;;;;;11.13;4.28;;;;;;;;;;5044565;28;20034;-65
2023/10/08 07:48:29;;;;;;;8.50;4.10;;;;;;;;;;5064161;28;20626;-65
2023/10/08 07:50:55;;;;;;;6.15;4.00;;;;;;;;;;5042829;28;20029;-66
2023/10/08 07:53:20;;;;;;;11.90;4.18;;;;;;;;;;5043765;28;20063;-65
2023/10/08 07:55:48;;;;;;;7.85;4.20;;;;;;;;;;5037337;28;20055;-65
2023/10/08 07:58:14;;;;;;;7.57;3.80;;;;;;;;;;5048788;28;20138;-65
2023/10/08 08:00:40;;;;;;;9.10;4.28;;;;;;;;;;5046936;28;20028;-66
2023/10/08 08:03:06;;;;;;;8.70;4.28;;;;;;;;;;5049813;28;20032;-66
2023/10/08 08:05:31;;;;;;;7.72;4.03;;;;;;;;;;5043292;28;20028;-65
2023/10/08 08:08:05;;;;;;;8.57;4.35;;;;;;;;;;5047723;28;20237;-66
2023/10/08 08:10:30;;;;;;;10.43;4.32;;;;;;;;;;5063247;28;20025;-65
2023/10/08 08:12:56;;;;;;;6.53;4.10;;;;;;;;;;5085086;28;20031;-66
2023/10/08 08:15:22;;;;;;;8.07;4.07;;;;;;;;;;5041100;28;20125;-66
2023/10/08 08:17:48;;;;;;;7.80;4.57;;;;;;;;;;5057135;28;20016;-66
2023/10/08 08:20:21;;;;;;;10.95;4.85;;;;;;;;;;5042189;28;20028;-66
2023/10/08 08:22:49;;;;;;;9.75;4.95;;;;;;;;;;5048633;28;20036;-67
2023/10/08 08:25:15;;;;;;;10.88;4.15;;;;;;;;;;5039319;28;20051;-66
2023/10/08 08:27:46;;;;;;;11.48;4.82;;;;;;;;;;5040633;28;20225;-66
2023/10/08 08:30:15;;;;;;;11.02;5.38;;;;;;;;;;5044586;28;20031;-66
2023/10/08 08:32:43;;;;;;;10.70;4.85;;;;;;;;;;5039087;28;20023;-66
2023/10/08 08:35:09;;;;;;;9.02;5.07;;;;;;;;;;5035330;28;20025;-66
2023/10/08 08:37:35;;;;;;;8.63;4.38;;;;;;;;;;5035372;28;20028;-66
2023/10/08 08:40:18;;;;;;;9.75;4.32;;;;;;;;;;5037928;28;20031;-65
2023/10/08 08:42:47;;;;;;;9.27;4.68;;;;;;;;;;5044711;28;20043;-66
2023/10/08 08:45:16;;;;;;;7.28;4.68;;;;;;;;;;5033666;28;20029;-66
2023/10/08 08:47:41;;;;;;;7.55;3.88;;;;;;;;;;5044264;28;20029;-66
2023/10/08 08:50:10;;;;;;;6.78;3.35;;;;;;;;;;5048941;28;20027;-66
2023/10/08 08:52:36;;;;;;;7.07;3.67;;;;;;;;;;5049619;28;20040;-65
2023/10/08 08:55:06;;;;;;;9.82;5.07;;;;;;;;;;5044085;28;20035;-66
2023/10/08 08:57:31;;;;;;;8.35;4.75;;;;;;;;;;5044474;28;20020;-66
2023/10/08 08:59:58;;;;;;;12.77;4.93;;;;;;;;;;5048044;28;20357;-66
2023/10/08 09:02:23;;;;;;;8.73;4.82;;;;;;;;;;5049597;28;20039;-66
2023/10/08 09:04:49;;;;;;;10.70;4.45;;;;;;;;;;5039998;28;20055;-66
2023/10/08 09:07:14;;;;;;;8.30;4.75;;;;;;;;;;5048886;28;20172;-66
2023/10/08 09:09:40;;;;;;;8.77;4.45;;;;;;;;;;5037386;28;20012;-66
2023/10/08 09:12:05;;;;;;;8.07;4.30;;;;;;;;;;5041112;28;21346;-66
2023/10/08 09:14:32;;;;;;;7.60;4.32;;;;;;;;;;5045916;28;20713;-66
2023/10/08 09:16:58;;;;;;;7.95;4.05;;;;;;;;;;5044343;28;20020;-66
2023/10/08 09:19:25;;;;;;;9.73;4.97;;;;;;;;;;5047600;28;20036;-66
2023/10/08 09:21:59;;;;;;;9.98;5.20;;;;;;;;;;5036879;28;20911;-66
2023/10/08 09:24:25;;;;;;;8.80;4.75;;;;;;;;;;5040618;28;20139;-66
2023/10/08 09:26:52;;;;;;;11.80;5.30;;;;;;;;;;5048627;28;20178;-66
2023/10/08 09:29:17;;;;;;;10.90;4.53;;;;;;;;;;5035573;28;20415;-66
2023/10/08 09:31:48;;;;;;;8.60;4.60;;;;;;;;;;5047473;28;20036;-66
2023/10/08 09:34:16;;;;;;;12.57;5.00;;;;;;;;;;5047726;28;21164;-66
2023/10/08 09:36:42;;;;;;;11.35;5.22;;;;;;;;;;5048490;28;20085;-66
2023/10/08 09:39:07;;;;;;;9.05;5.47;;;;;;;;;;5049017;28;20785;-67
2023/10/08 09:41:33;;;;;;;9.55;4.85;;;;;;;;;;5043633;28;20029;-66
2023/10/08 09:43:58;;;;;;;10.50;5.43;;;;;;;;;;5050645;28;20830;-66
2023/10/08 09:46:29;;;;;;;8.30;5.10;;;;;;;;;;5038973;28;20848;-70
2023/10/08 09:48:56;;;;;;;11.25;4.72;;;;;;;;;;5046057;28;20870;-66
2023/10/08 09:51:23;;;;;;;11.02;4.80;;;;;;;;;;5032142;28;20016;-64
2023/10/08 09:54:00;;;;;;;8.00;4.78;;;;;;;;;;5057734;28;20031;-63
2023/10/08 09:56:28;;;;;;;10.48;4.80;;;;;;;;;;5030946;28;20036;-68
2023/10/08 09:58:53;;;;;;;11.18;5.30;;;;;;;;;;5038904;28;20071;-65
2023/10/08 10:01:19;;;;;;;10.48;5.65;;;;;;;;;;5039654;28;20913;-61
2023/10/08 10:03:45;;;;;;;14.38;5.40;;;;;;;;;;5040661;28;20147;-63
2023/10/08 10:06:15;;;;;;;9.73;4.82;;;;;;;;;;5036011;28;20830;-64
2023/10/08 10:08:44;;;;;;;10.23;4.70;;;;;;;;;;5036809;28;20020;-64
2023/10/08 10:11:10;;;;;;;10.10;5.28;;;;;;;;;;5041209;28;20497;-64
2023/10/08 10:13:40;;;;;;;9.95;4.60;;;;;;;;;;5041312;28;20019;-64
2023/10/08 10:16:07;;;;;;;10.48;5.78;;;;;;;;;;5044977;28;20035;-66
2023/10/08 10:18:33;;;;;;;12.75;5.45;;;;;;;;;;5039747;28;20081;-67
2023/10/08 10:21:03;;;;;;;11.23;5.72;;;;;;;;;;5041029;28;20028;-65
2023/10/08 10:23:44;;;;;;;10.70;6.28;;;;;;;;;;5039639;28;20021;-67
2023/10/08 10:26:26;;;;;;;9.93;4.93;;;;;;;;;;5044171;28;20013;-63
2023/10/08 10:29:10;;;;;;;10.07;5.45;;;;;;;;;;5043769;28;20878;-66
2023/10/08 10:31:35;;;;;;;13.73;5.93;;;;;;;;;;5039426;28;20052;-68
2023/10/08 10:34:05;;;;;;;12.93;5.53;;;;;;;;;;5035439;28;20073;-69
2023/10/08 10:36:31;;;;;;;9.02;5.75;;;;;;;;;;5060811;28;20020;-66
2023/10/08 10:38:56;;;;;;;11.32;6.15;;;;;;;;;;5042990;28;20822;-66
2023/10/08 10:41:22;;;;;;;12.52;6.18;;;;;;;;;;5042545;28;20842;-62
2023/10/08 10:43:52;;;;;;;13.10;5.60;;;;;;;;;;5042565;28;20072;-65
2023/10/08 10:46:30;;;;;;;10.95;5.72;;;;;;;;;;5039974;28;20077;-63
2023/10/08 10:51:41;;;;;;;11.30;5.88;;;;;;;;;;5039321;28;20806;-64
2023/10/08 10:54:19;;;;;;;11.98;6.15;;;;;;;;;;5056708;28;20031;-64
2023/10/08 10:56:47;;;;;;;13.77;5.93;;;;;;;;;;5037926;28;20143;-64
2023/10/08 10:59:18;;;;;;;11.98;5.93;;;;;;;;;;5037091;28;20017;-64
2023/10/08 11:01:52;;;;;;;10.63;6.13;;;;;;;;;;5035287;28;20028;-63
2023/10/08 11:04:18;;;;;;;12.90;5.78;;;;;;;;;;5036049;28;20028;-64
2023/10/08 11:06:46;;;;;;;11.77;6.68;;;;;;;;;;5030755;28;20173;-64
2023/10/08 11:09:17;;;;;;;13.60;6.97;;;;;;;;;;5042542;28;20035;-63
2023/10/08 11:11:53;;;;;;;12.07;5.85;;;;;;;;;;5042063;28;20033;-65
2023/10/08 11:14:19;;;;;;;9.20;5.47;;;;;;;;;;5044276;28;20075;-64
2023/10/08 11:16:44;;;;;;;10.60;6.45;;;;;;;;;;5044014;28;20032;-65
2023/10/08 11:19:11;;;;;;;9.40;5.80;;;;;;;;;;5031978;28;20929;-64
2023/10/08 11:21:50;;;;;;;11.02;5.50;;;;;;;;;;5034308;28;20028;-65
2023/10/08 11:24:26;;;;;;;13.50;7.00;;;;;;;;;;5059309;28;20028;-66
2023/10/08 11:27:06;;;;;;;19.65;5.72;;;;;;;;;;5048106;28;20044;-66
2023/10/08 11:29:32;;;;;;;11.93;6.18;;;;;;;;;;5042671;28;20024;-66
2023/10/08 11:32:00;;;;;;;10.55;6.05;;;;;;;;;;5043275;28;20059;-66
2023/10/08 11:34:36;;;;;;;9.75;5.68;;;;;;;;;;5037785;28;20091;-66
2023/10/08 11:37:04;;;;;;;11.43;6.38;;;;;;;;;;5041472;28;20054;-66
2023/10/08 11:39:45;;;;;;;12.50;5.70;;;;;;;;;;5036681;28;20901;-66
2023/10/08 11:42:33;;;;;;;11.02;5.63;;;;;;;;;;5048677;28;21339;-66
2023/10/08 11:44:59;;;;;;;11.70;6.93;;;;;;;;;;5037442;28;20140;-66
2023/10/08 11:47:25;;;;;;;8.05;4.88;;;;;;;;;;5036571;28;20036;-66
2023/10/08 11:49:54;;;;;;;13.10;6.03;;;;;;;;;;5041637;28;20401;-66
2023/10/08 11:52:21;;;;;;;10.48;4.72;;;;;;;;;;5040428;28;20016;-66
2023/10/08 11:54:48;;;;;;;10.48;4.72;;;;;;;;;;5040881;28;20032;-66
2023/10/08 11:57:14;;;;;;;10.88;5.35;;;;;;;;;;5044712;28;20020;-66
2023/10/08 11:59:39;;;;;;;10.35;5.63;;;;;;;;;;5044277;28;20024;-66
2023/10/08 12:02:06;;;;;;;9.52;5.88;;;;;;;;;;5040160;28;20029;-66
2023/10/08 12:04:31;;;;;;;14.90;5.78;;;;;;;;;;5037223;28;20023;-66
2023/10/08 12:06:56;;;;;;;9.23;5.13;;;;;;;;;;5035972;28;20134;-66
2023/10/08 12:09:21;;;;;;;8.25;5.30;;;;;;;;;;5047794;28;20274;-66
2023/10/08 12:11:51;;;;;;;11.17;5.73;;;;;;;;;;5035415;28;20042;-66
2023/10/08 12:14:16;;;;;;;11.52;5.35;;;;;;;;;;5045635;28;20266;-66
2023/10/08 12:16:43;;;;;;;11.18;4.85;;;;;;;;;;5041833;28;20502;-66
2023/10/08 12:19:17;;;;;;;7.68;4.93;;;;;;;;;;5042337;28;20443;-66
2023/10/08 12:21:46;;;;;;;9.52;5.35;;;;;;;;;;5036255;28;20086;-66
2023/10/08 12:24:12;;;;;;;11.57;4.90;;;;;;;;;;5036117;28;20063;-66
2023/10/08 12:26:40;;;;;;;9.52;5.13;;;;;;;;;;5046302;28;20040;-66
2023/10/08 12:29:06;;;;;;;10.18;5.10;;;;;;;;;;5036490;28;20785;-66
2023/10/08 12:31:33;;;;;;;10.75;5.10;;;;;;;;;;5039373;28;20020;-65
2023/10/08 12:34:00;;;;;;;9.73;5.00;;;;;;;;;;5036291;28;20082;-66
2023/10/08 12:36:26;;;;;;;9.65;5.13;;;;;;;;;;5034494;28;20082;-66
2023/10/08 12:38:57;;;;;;;8.75;4.82;;;;;;;;;;5044896;28;20339;-66
2023/10/08 12:41:24;;;;;;;9.93;5.60;;;;;;;;;;5046288;28;20031;-66
2023/10/08 12:43:52;;;;;;;10.02;4.75;;;;;;;;;;5045628;28;20139;-66
2023/10/08 12:46:30;;;;;;;10.13;5.03;;;;;;;;;;5044330;28;20884;-66
2023/10/08 12:48:56;;;;;;;11.02;6.25;;;;;;;;;;5043564;28;20028;-66
2023/10/08 12:51:24;;;;;;;13.98;6.00;;;;;;;;;;5042220;28;20042;-66
2023/10/08 12:54:03;;;;;;;11.35;5.60;;;;;;;;;;5044473;28;20160;-66
2023/10/08 12:56:31;;;;;;;12.18;5.55;;;;;;;;;;5045570;28;20131;-66
2023/10/08 12:58:57;;;;;;;9.52;5.75;;;;;;;;;;5038637;28;20783;-66
2023/10/08 13:01:22;;;;;;;11.25;5.90;;;;;;;;;;5042859;28;20127;-66
2023/10/08 13:03:48;;;;;;;10.33;5.40;;;;;;;;;;5035869;28;20090;-66
2023/10/08 13:06:28;;;;;;;12.75;7.03;;;;;;;;;;5030887;28;20074;-66
2023/10/08 13:08:54;;;;;;;10.13;5.75;;;;;;;;;;5033054;28;20037;-66
2023/10/08 13:11:22;;;;;;;11.23;5.80;;;;;;;;;;5039129;28;20088;-66
2023/10/08 13:13:57;;;;;;;12.20;6.38;;;;;;;;;;5044862;28;21095;-66
2023/10/08 13:16:22;;;;;;;11.48;6.43;;;;;;;;;;5044531;28;20027;-66
2023/10/08 13:18:48;;;;;;;9.48;5.53;;;;;;;;;;5044832;28;20028;-66
2023/10/08 13:21:13;;;;;;;10.80;5.95;;;;;;;;;;5046449;28;20016;-66
2023/10/08 13:23:39;;;;;;;11.43;6.97;;;;;;;;;;5037988;28;20121;-66
2023/10/08 13:26:06;;;;;;;9.95;5.45;;;;;;;;;;5043906;28;20032;-66
2023/10/08 13:28:33;;;;;;;14.63;6.72;;;;;;;;;;5042014;28;20843;-66
2023/10/08 13:30:59;;;;;;;10.63;5.53;;;;;;;;;;5043059;28;20032;-63
2023/10/08 13:33:24;;;;;;;12.70;5.10;;;;;;;;;;5040102;28;20083;-65
2023/10/08 13:35:49;;;;;;;9.73;5.13;;;;;;;;;;5045685;28;20186;-66
2023/10/08 13:38:19;;;;;;;13.43;6.00;;;;;;;;;;5043634;28;20027;-66
2023/10/08 13:41:03;;;;;;;11.00;6.38;;;;;;;;;;5048920;28;20036;-66
2023/10/08 13:43:35;;;;;;;10.47;5.20;;;;;;;;;;5036972;28;20317;-66
2023/10/08 13:46:04;;;;;;;10.95;5.50;;;;;;;;;;5038908;28;20281;-66
2023/10/08 13:48:34;;;;;;;8.25;5.13;;;;;;;;;;5035161;28;20377;-66
2023/10/08 13:51:03;;;;;;;9.80;5.22;;;;;;;;;;5034016;28;20012;-66
2023/10/08 13:53:32;;;;;;;9.27;5.45;;;;;;;;;;5036270;28;20020;-66
2023/10/08 13:56:00;;;;;;;11.48;5.15;;;;;;;;;;5037097;28;20033;-65
2023/10/08 13:58:29;;;;;;;9.23;5.07;;;;;;;;;;5044546;28;20139;-66
2023/10/08 14:00:55;;;;;;;10.95;5.25;;;;;;;;;;5044309;28;20947;-66
2023/10/08 14:03:21;;;;;;;11.93;5.13;;;;;;;;;;5042190;28;20070;-66
2023/10/08 14:05:50;;;;;;;13.18;5.63;;;;;;;;;;5036751;28;20035;-66
2023/10/08 14:08:16;;;;;;;9.68;5.50;;;;;;;;;;5040519;28;20020;-66
2023/10/08 14:10:43;;;;;;;10.65;5.20;;;;;;;;;;5035779;28;20035;-66
2023/10/08 14:13:08;;;;;;;9.45;5.00;;;;;;;;;;5044026;28;20016;-66
2023/10/08 14:15:36;;;;;;;10.77;5.40;;;;;;;;;;5044477;28;20028;-66
2023/10/08 14:18:07;;;;;;;14.63;4.93;;;;;;;;;;5038652;28;20298;-66
2023/10/08 14:20:32;;;;;;;9.40;4.90;;;;;;;;;;5029078;28;20056;-66
2023/10/08 14:23:02;;;;;;;7.63;4.70;;;;;;;;;;5032245;28;20029;-66
2023/10/08 14:25:28;;;;;;;10.50;4.95;;;;;;;;;;5048999;28;20036;-67
2023/10/08 14:27:53;;;;;;;8.55;4.93;;;;;;;;;;5032372;28;20091;-67
2023/10/08 14:30:21;;;;;;;11.93;4.35;;;;;;;;;;5038636;28;20812;-66
2023/10/08 14:32:47;;;;;;;9.57;4.53;;;;;;;;;;5044371;28;20028;-66
2023/10/08 14:43:24;;;;;;;10.13;5.13;;;;;;;;;;5045587;28;20038;-66
2023/10/08 14:45:49;;;;;;;11.73;4.90;;;;;;;;;;5039629;28;20020;-67
2023/10/08 14:48:16;;;;;;;8.30;5.13;;;;;;;;;;5029798;28;20025;-66
2023/10/08 14:50:41;;;;;;;12.05;5.10;;;;;;;;;;5043742;28;20131;-66
2023/10/08 14:53:07;;;;;;;11.68;5.90;;;;;;;;;;5044459;28;20032;-66
2023/10/08 14:55:35;;;;;;;9.80;4.22;;;;;;;;;;5045698;28;20031;-66
2023/10/08 14:58:07;;;;;;;10.77;5.05;;;;;;;;;;5043577;28;20051;-67
2023/10/08 15:00:35;;;;;;;8.77;4.30;;;;;;;;;;5036937;28;20430;-67
2023/10/08 15:03:02;;;;;;;8.93;4.50;;;;;;;;;;5041436;28;20059;-66
2023/10/08 15:05:28;;;;;;;10.98;4.88;;;;;;;;;;5038648;28;20171;-66
2023/10/08 15:07:53;;;;;;;8.82;4.57;;;;;;;;;;5033504;28;20025;-66
2023/10/08 15:10:19;;;;;;;9.90;4.72;;;;;;;;;;5030393;28;20533;-66
2023/10/08 15:12:44;;;;;;;8.88;4.22;;;;;;;;;;5032947;28;20024;-66
2023/10/08 15:15:13;;;;;;;9.40;4.88;;;;;;;;;;5042820;28;20051;-66
2023/10/08 15:17:46;;;;;;;6.25;4.10;;;;;;;;;;5044083;28;20031;-66
2023/10/08 15:20:14;;;;;;;10.80;5.13;;;;;;;;;;5035819;28;20024;-66
2023/10/08 15:22:42;;;;;;;11.52;4.70;;;;;;;;;;5050824;28;20043;-66
2023/10/08 15:25:07;;;;;;;10.20;5.22;;;;;;;;;;5042163;28;21016;-66
2023/10/08 15:27:33;;;;;;;10.75;4.85;;;;;;;;;;5035969;28;20091;-66
2023/10/08 15:29:58;;;;;;;13.82;5.05;;;;;;;;;;5036580;28;20078;-66
2023/10/08 15:32:25;;;;;;;6.93;4.20;;;;;;;;;;5046561;28;20028;-66
2023/10/08 15:34:50;;;;;;;9.50;5.40;;;;;;;;;;5045621;28;20288;-66
2023/10/08 15:37:15;;;;;;;9.17;5.00;;;;;;;;;;5042568;28;20032;-66
2023/10/08 15:39:41;;;;;;;11.80;4.38;;;;;;;;;;5031963;28;20031;-65